Time;durP1;ratioP1;P1;durP2;ratioP2;P2;SDS_P1;SDS_P2;PMS_P1;PMS_P2;Temp;Humidity;BMP_temperature;BMP_pressure;BME280_temperature;BME280_humidity;BME280_pressure;Samples;Min_cycle;Max_cycle;Signal;HPM_P1;HPM_P2
2021/10/27 00:01:02;;;;;;;112.72;57.85;;;;;;;;;;4997975;28;20394;-48
2021/10/27 00:03:28;;;;;;;93.85;49.20;;;;;;;;;;4998292;28;20069;-47
2021/10/27 00:05:54;;;;;;;78.13;40.80;;;;;;;;;;5004701;28;20029;-49
2021/10/27 00:08:20;;;;;;;85.38;43.88;;;;;;;;;;5052216;28;20388;-49
2021/10/27 00:10:48;;;;;;;104.22;56.38;;;;;;;;;;5052030;28;20024;-48
2021/10/27 00:13:14;;;;;;;85.70;45.05;;;;;;;;;;5052145;28;20021;-49
2021/10/27 00:15:40;;;;;;;87.78;44.78;;;;;;;;;;5055006;28;20017;-48
2021/10/27 00:18:09;;;;;;;119.28;58.50;;;;;;;;;;5055898;28;20021;-48
2021/10/27 00:20:35;;;;;;;96.95;42.55;;;;;;;;;;5055949;28;20079;-49
2021/10/27 00:23:02;;;;;;;91.70;41.85;;;;;;;;;;5055635;28;20076;-49
2021/10/27 00:25:28;;;;;;;79.93;39.22;;;;;;;;;;5056090;28;20017;-49
2021/10/27 00:27:54;;;;;;;79.75;38.67;;;;;;;;;;5055793;28;20023;-48
2021/10/27 00:30:20;;;;;;;98.85;46.28;;;;;;;;;;5055472;28;20037;-49
2021/10/27 00:32:47;;;;;;;86.53;41.80;;;;;;;;;;5055768;28;20021;-48
2021/10/27 00:35:13;;;;;;;245.02;48.35;;;;;;;;;;5055553;28;20021;-49
2021/10/27 00:37:39;;;;;;;132.35;48.05;;;;;;;;;;5055369;28;20107;-49
2021/10/27 00:40:06;;;;;;;128.27;46.25;;;;;;;;;;5055518;28;20036;-49
2021/10/27 00:42:32;;;;;;;151.07;51.78;;;;;;;;;;5053982;28;20103;-48
2021/10/27 00:44:58;;;;;;;122.78;58.58;;;;;;;;;;5055422;28;20499;-48
2021/10/27 00:47:25;;;;;;;119.75;47.00;;;;;;;;;;5055484;28;20023;-48
2021/10/27 00:49:51;;;;;;;137.77;69.63;;;;;;;;;;5055314;28;20477;-49
2021/10/27 00:52:18;;;;;;;103.15;42.45;;;;;;;;;;5055425;28;20051;-49
2021/10/27 00:54:45;;;;;;;83.93;47.33;;;;;;;;;;5055230;28;20036;-49
2021/10/27 00:57:12;;;;;;;124.25;41.30;;;;;;;;;;5055308;28;20516;-49
2021/10/27 00:59:40;;;;;;;183.70;50.33;;;;;;;;;;5055257;28;20488;-48
2021/10/27 01:02:06;;;;;;;108.25;38.13;;;;;;;;;;5054952;28;20060;-49
2021/10/27 01:04:32;;;;;;;73.43;41.42;;;;;;;;;;5055001;28;20033;-50
2021/10/27 01:06:59;;;;;;;122.00;42.20;;;;;;;;;;5054956;28;20033;-49
2021/10/27 01:09:25;;;;;;;87.97;48.78;;;;;;;;;;5054933;28;20389;-49
2021/10/27 01:11:54;;;;;;;82.35;47.50;;;;;;;;;;5055010;28;20021;-49
2021/10/27 01:14:20;;;;;;;92.60;51.63;;;;;;;;;;5054908;28;20029;-48
2021/10/27 01:16:47;;;;;;;134.57;41.70;;;;;;;;;;5054814;28;20108;-49
2021/10/27 01:19:13;;;;;;;68.53;39.53;;;;;;;;;;5054848;28;20036;-49
2021/10/27 01:21:40;;;;;;;87.00;41.63;;;;;;;;;;5054907;28;20025;-49
2021/10/27 01:24:07;;;;;;;106.50;43.88;;;;;;;;;;5054726;28;20060;-49
2021/10/27 01:26:34;;;;;;;203.20;40.75;;;;;;;;;;5054248;28;20461;-48
2021/10/27 01:29:00;;;;;;;67.10;42.85;;;;;;;;;;5054615;28;20037;-49
2021/10/27 01:31:27;;;;;;;65.50;43.42;;;;;;;;;;5054500;28;20025;-50
2021/10/27 01:33:53;;;;;;;68.95;42.72;;;;;;;;;;5054456;28;20028;-50
2021/10/27 01:36:20;;;;;;;70.75;43.92;;;;;;;;;;5054042;28;20048;-49
2021/10/27 01:38:47;;;;;;;71.72;43.88;;;;;;;;;;5053193;28;20119;-49
2021/10/27 01:41:14;;;;;;;67.65;39.28;;;;;;;;;;5054462;28;20059;-47
2021/10/27 01:43:53;;;;;;;71.32;42.22;;;;;;;;;;5054247;28;20032;-48
2021/10/27 01:46:26;;;;;;;75.22;43.42;;;;;;;;;;5054160;28;20104;-49
2021/10/27 01:48:52;;;;;;;59.25;38.33;;;;;;;;;;5054357;28;20100;-50
2021/10/27 01:51:18;;;;;;;69.25;43.00;;;;;;;;;;5054275;28;20029;-49
2021/10/27 01:53:44;;;;;;;53.42;35.90;;;;;;;;;;5054179;28;20033;-49
2021/10/27 01:56:11;;;;;;;47.35;33.60;;;;;;;;;;5054095;28;20021;-49
2021/10/27 01:58:37;;;;;;;51.45;33.00;;;;;;;;;;5054085;28;20021;-49
2021/10/27 02:01:03;;;;;;;57.17;37.40;;;;;;;;;;5053990;28;20423;-49
2021/10/27 02:03:30;;;;;;;49.28;34.63;;;;;;;;;;5053787;28;20040;-49
2021/10/27 02:05:56;;;;;;;52.47;35.78;;;;;;;;;;5053769;28;20021;-49
2021/10/27 02:08:22;;;;;;;43.15;30.45;;;;;;;;;;5053858;28;20622;-48
2021/10/27 02:10:48;;;;;;;46.03;29.85;;;;;;;;;;5053884;28;20028;-48
2021/10/27 02:13:14;;;;;;;73.93;33.70;;;;;;;;;;5053874;28;20033;-48
2021/10/27 02:15:42;;;;;;;79.45;31.83;;;;;;;;;;5053591;28;20043;-49
2021/10/27 02:18:08;;;;;;;48.67;32.97;;;;;;;;;;5053520;28;20107;-48
2021/10/27 02:20:34;;;;;;;52.67;33.38;;;;;;;;;;5053437;28;20074;-48
2021/10/27 02:23:01;;;;;;;81.35;31.42;;;;;;;;;;5053685;28;20051;-48
2021/10/27 02:25:27;;;;;;;55.70;30.23;;;;;;;;;;5053686;28;20032;-48
2021/10/27 02:27:55;;;;;;;50.85;31.75;;;;;;;;;;5053484;28;20489;-49
2021/10/27 02:30:21;;;;;;;50.08;33.75;;;;;;;;;;5053466;28;20040;-48
2021/10/27 02:32:50;;;;;;;44.58;32.45;;;;;;;;;;5053345;28;20035;-49
2021/10/27 02:35:16;;;;;;;46.45;28.65;;;;;;;;;;5053641;28;20028;-49
2021/10/27 02:37:43;;;;;;;40.10;29.05;;;;;;;;;;5052383;28;20409;-48
2021/10/27 02:40:11;;;;;;;46.35;29.10;;;;;;;;;;5053212;28;20492;-48
2021/10/27 02:42:39;;;;;;;43.10;29.33;;;;;;;;;;5050416;28;20370;-48
2021/10/27 02:45:07;;;;;;;54.88;33.95;;;;;;;;;;5033315;28;20021;-48
2021/10/27 02:47:33;;;;;;;58.15;29.08;;;;;;;;;;5033121;28;20026;-47
2021/10/27 02:49:59;;;;;;;56.85;32.58;;;;;;;;;;5033301;28;20022;-48
2021/10/27 02:52:25;;;;;;;53.28;31.77;;;;;;;;;;5033207;28;20080;-47
2021/10/27 02:54:51;;;;;;;47.13;31.10;;;;;;;;;;5033183;28;20151;-49
2021/10/27 02:57:19;;;;;;;52.42;28.27;;;;;;;;;;5033210;28;20501;-49
2021/10/27 02:59:46;;;;;;;51.47;31.13;;;;;;;;;;5033098;28;20029;-49
2021/10/27 03:02:12;;;;;;;51.40;30.55;;;;;;;;;;5032876;28;20100;-49
2021/10/27 03:04:38;;;;;;;54.78;25.63;;;;;;;;;;5032007;28;20371;-50
2021/10/27 03:07:04;;;;;;;54.15;28.30;;;;;;;;;;5032899;28;20025;-50
2021/10/27 03:09:30;;;;;;;47.80;27.75;;;;;;;;;;5032959;28;20033;-49
2021/10/27 03:11:56;;;;;;;41.58;27.70;;;;;;;;;;5032860;28;20025;-49
2021/10/27 03:14:23;;;;;;;46.13;29.45;;;;;;;;;;5032903;28;20029;-49
2021/10/27 03:16:49;;;;;;;48.50;30.58;;;;;;;;;;5032616;28;20033;-48
2021/10/27 03:19:15;;;;;;;43.70;28.83;;;;;;;;;;5032998;28;20022;-49
2021/10/27 03:21:41;;;;;;;41.72;27.45;;;;;;;;;;5032774;28;20030;-48
2021/10/27 03:24:08;;;;;;;47.67;29.08;;;;;;;;;;5032580;28;20069;-49
2021/10/27 03:26:34;;;;;;;62.42;33.22;;;;;;;;;;5032767;28;20470;-49
2021/10/27 03:29:00;;;;;;;50.25;30.60;;;;;;;;;;5032676;28;20087;-56
2021/10/27 03:31:26;;;;;;;49.15;29.10;;;;;;;;;;5032644;28;20025;-49
2021/10/27 03:33:52;;;;;;;44.08;27.23;;;;;;;;;;5033180;28;20025;-49
2021/10/27 03:36:20;;;;;;;45.80;30.17;;;;;;;;;;5032655;28;20095;-49
2021/10/27 03:38:46;;;;;;;51.45;30.50;;;;;;;;;;5032629;28;20060;-48
2021/10/27 03:41:15;;;;;;;49.85;29.83;;;;;;;;;;5032419;28;20029;-48
2021/10/27 03:43:42;;;;;;;60.22;33.53;;;;;;;;;;5032450;28;20124;-48
2021/10/27 03:46:09;;;;;;;55.63;32.75;;;;;;;;;;5032481;28;20437;-48
2021/10/27 03:48:36;;;;;;;55.45;32.10;;;;;;;;;;5032465;28;20021;-49
2021/10/27 03:51:02;;;;;;;48.97;30.05;;;;;;;;;;5032172;28;20156;-48
2021/10/27 03:53:28;;;;;;;58.33;32.72;;;;;;;;;;5032350;28;20029;-49
2021/10/27 03:55:55;;;;;;;75.90;44.72;;;;;;;;;;5032437;28;20374;-48
2021/10/27 03:58:21;;;;;;;78.95;40.83;;;;;;;;;;5032382;28;20489;-48
2021/10/27 04:00:48;;;;;;;83.65;40.35;;;;;;;;;;5032189;28;20029;-49
2021/10/27 04:03:20;;;;;;;72.93;40.08;;;;;;;;;;5032025;28;20481;-48
2021/10/27 04:05:46;;;;;;;78.63;39.60;;;;;;;;;;5032297;28;20056;-48
2021/10/27 04:08:12;;;;;;;85.85;40.33;;;;;;;;;;5032123;28;20034;-48
2021/10/27 04:10:39;;;;;;;78.22;39.08;;;;;;;;;;5032345;28;20034;-49
2021/10/27 04:13:05;;;;;;;72.30;39.08;;;;;;;;;;5032147;28;20025;-48
2021/10/27 04:15:31;;;;;;;106.70;40.90;;;;;;;;;;5032162;28;20017;-48
2021/10/27 04:17:57;;;;;;;163.63;53.38;;;;;;;;;;5032050;28;20037;-49
2021/10/27 04:20:24;;;;;;;194.70;58.60;;;;;;;;;;5032265;28;20478;-49
2021/10/27 04:22:50;;;;;;;198.52;56.22;;;;;;;;;;5033248;28;20022;-49
2021/10/27 04:25:17;;;;;;;207.85;60.15;;;;;;;;;;5032915;28;20083;-49
2021/10/27 04:27:43;;;;;;;323.90;59.83;;;;;;;;;;5033011;28;20075;-49
2021/10/27 04:30:10;;;;;;;256.58;62.67;;;;;;;;;;5032933;28;20033;-48
2021/10/27 04:32:36;;;;;;;274.80;60.42;;;;;;;;;;5032631;28;20104;-48
2021/10/27 04:35:02;;;;;;;207.60;58.03;;;;;;;;;;5032950;28;20358;-49
2021/10/27 04:37:33;;;;;;;194.18;56.75;;;;;;;;;;5032594;28;20046;-49
2021/10/27 04:39:59;;;;;;;195.70;57.17;;;;;;;;;;5032862;28;20033;-49
2021/10/27 04:42:25;;;;;;;190.55;52.05;;;;;;;;;;5032240;28;20021;-48
2021/10/27 04:44:52;;;;;;;156.45;53.67;;;;;;;;;;5032728;28;20036;-49
2021/10/27 04:47:18;;;;;;;147.60;50.90;;;;;;;;;;5032601;28;20017;-49
2021/10/27 04:49:44;;;;;;;118.68;44.05;;;;;;;;;;5032774;28;20026;-49
2021/10/27 04:52:10;;;;;;;122.50;44.53;;;;;;;;;;5032616;28;20036;-49
2021/10/27 04:54:36;;;;;;;209.52;44.67;;;;;;;;;;5032741;28;20029;-49
2021/10/27 04:57:03;;;;;;;109.97;44.83;;;;;;;;;;5032605;28;20041;-49
2021/10/27 04:59:44;;;;;;;204.05;47.47;;;;;;;;;;5032688;28;20025;-48
2021/10/27 05:02:11;;;;;;;122.13;44.80;;;;;;;;;;5034480;28;20117;-48
2021/10/27 05:04:38;;;;;;;107.80;45.78;;;;;;;;;;5038828;28;20080;-50
2021/10/27 05:07:05;;;;;;;116.60;46.30;;;;;;;;;;5055978;28;20032;-50
2021/10/27 05:09:34;;;;;;;125.18;48.72;;;;;;;;;;5056030;28;20160;-48
2021/10/27 05:12:01;;;;;;;151.27;50.38;;;;;;;;;;5055791;28;20021;-48
2021/10/27 05:14:27;;;;;;;256.23;51.08;;;;;;;;;;5054132;28;20498;-48
2021/10/27 05:16:53;;;;;;;159.32;53.03;;;;;;;;;;5055918;28;20082;-48
2021/10/27 05:19:19;;;;;;;195.65;54.97;;;;;;;;;;5055818;28;20021;-48
2021/10/27 05:21:45;;;;;;;297.98;51.60;;;;;;;;;;5055660;28;20473;-48
2021/10/27 05:24:11;;;;;;;468.65;56.95;;;;;;;;;;5055602;28;20041;-48
2021/10/27 05:26:37;;;;;;;563.97;59.38;;;;;;;;;;5055759;28;20025;-48
2021/10/27 05:29:04;;;;;;;205.75;49.33;;;;;;;;;;5055768;28;20029;-48
2021/10/27 05:31:32;;;;;;;138.35;50.45;;;;;;;;;;5054185;28;20033;-48
2021/10/27 05:33:59;;;;;;;150.75;40.85;;;;;;;;;;5055565;28;20108;-48
2021/10/27 05:36:26;;;;;;;155.85;41.53;;;;;;;;;;5055170;28;20061;-48
2021/10/27 05:38:52;;;;;;;193.95;50.28;;;;;;;;;;5055329;28;20040;-48
2021/10/27 05:41:19;;;;;;;132.55;50.60;;;;;;;;;;5055481;28;20135;-48
2021/10/27 05:43:45;;;;;;;193.65;48.60;;;;;;;;;;5055462;28;20040;-47
2021/10/27 05:46:13;;;;;;;124.47;48.47;;;;;;;;;;5055079;28;20359;-48
2021/10/27 05:48:44;;;;;;;122.70;45.00;;;;;;;;;;5055317;28;20029;-47
2021/10/27 05:51:23;;;;;;;312.67;55.73;;;;;;;;;;5055242;28;20024;-48
2021/10/27 05:56:34;;;;;;;200.52;45.60;;;;;;;;;;5055166;28;20082;-47
2021/10/27 05:59:00;;;;;;;106.15;44.22;;;;;;;;;;5055396;28;20096;-48
2021/10/27 06:01:26;;;;;;;90.88;40.47;;;;;;;;;;5054913;28;20420;-48
2021/10/27 06:03:52;;;;;;;112.15;40.50;;;;;;;;;;5054778;28;20469;-48
2021/10/27 06:06:19;;;;;;;159.88;42.97;;;;;;;;;;5055087;28;20025;-48
2021/10/27 06:08:48;;;;;;;127.80;39.42;;;;;;;;;;5055034;28;20481;-48
2021/10/27 06:11:14;;;;;;;124.07;42.85;;;;;;;;;;5054687;28;20476;-47
2021/10/27 06:13:46;;;;;;;142.02;42.85;;;;;;;;;;5054659;28;20029;-47
2021/10/27 06:16:18;;;;;;;138.60;42.08;;;;;;;;;;5054522;28;20025;-47
2021/10/27 06:18:44;;;;;;;88.75;42.63;;;;;;;;;;5054546;28;20120;-47
2021/10/27 06:21:11;;;;;;;84.93;39.40;;;;;;;;;;5054499;28;20033;-47
2021/10/27 06:23:41;;;;;;;97.55;38.65;;;;;;;;;;5054703;28;20485;-47
2021/10/27 06:26:08;;;;;;;93.18;39.17;;;;;;;;;;5054433;28;20032;-47
2021/10/27 06:28:55;;;;;;;95.32;39.42;;;;;;;;;;5054581;28;20021;-47
2021/10/27 06:31:44;;;;;;;102.45;42.60;;;;;;;;;;5054382;28;20044;-47
2021/10/27 06:34:33;;;;;;;147.70;41.88;;;;;;;;;;5054452;28;20039;-47
2021/10/27 06:47:54;;;;;;;89.28;42.72;;;;;;;;;;5054412;28;20035;-48
2021/10/27 06:50:20;;;;;;;102.93;44.80;;;;;;;;;;5054262;28;20102;-46
2021/10/27 06:52:46;;;;;;;177.27;49.70;;;;;;;;;;5054084;28;20480;-48
2021/10/27 06:55:12;;;;;;;120.95;45.40;;;;;;;;;;5054041;28;20103;-49
2021/10/27 06:57:38;;;;;;;100.10;42.60;;;;;;;;;;5053856;28;20484;-47
2021/10/27 07:00:42;;;;;;;100.95;42.22;;;;;;;;;;5054037;28;20025;-47
2021/10/27 07:16:10;;;;;;;116.30;44.83;;;;;;;;;;5053649;28;20517;-47
2021/10/27 07:18:36;;;;;;;138.40;44.30;;;;;;;;;;5053465;28;20036;-47
2021/10/27 07:21:03;;;;;;;113.25;48.67;;;;;;;;;;5053643;28;20490;-47
2021/10/27 07:23:29;;;;;;;97.72;49.75;;;;;;;;;;5053443;28;20056;-49
2021/10/27 07:25:59;;;;;;;100.72;47.53;;;;;;;;;;5053297;28;20159;-47
2021/10/27 07:28:26;;;;;;;91.15;46.05;;;;;;;;;;5053332;28;20063;-48
2021/10/27 07:30:58;;;;;;;88.18;45.53;;;;;;;;;;5053585;28;20025;-48
2021/10/27 07:33:26;;;;;;;92.68;47.42;;;;;;;;;;5053575;28;20024;-48
2021/10/27 07:36:02;;;;;;;97.05;47.60;;;;;;;;;;5053254;28;20017;-48
2021/10/27 07:41:13;;;;;;;122.50;49.03;;;;;;;;;;5053418;28;20444;-48
2021/10/27 07:43:41;;;;;;;91.10;46.40;;;;;;;;;;5053048;28;20034;-48
2021/10/27 07:46:07;;;;;;;92.00;46.78;;;;;;;;;;5053179;28;20021;-48
2021/10/27 07:48:33;;;;;;;109.18;51.17;;;;;;;;;;5053113;28;20021;-49
2021/10/27 07:50:59;;;;;;;145.77;59.55;;;;;;;;;;5053339;28;20029;-49
2021/10/27 07:53:27;;;;;;;166.05;53.15;;;;;;;;;;5053217;28;20528;-49
2021/10/27 07:55:54;;;;;;;124.30;49.65;;;;;;;;;;5053144;28;20465;-49
2021/10/27 07:58:21;;;;;;;159.43;50.60;;;;;;;;;;5053134;28;20025;-49
2021/10/27 08:00:48;;;;;;;103.03;50.72;;;;;;;;;;5053115;28;20400;-49
2021/10/27 08:03:14;;;;;;;97.25;48.70;;;;;;;;;;5052920;28;20040;-48
2021/10/27 08:05:42;;;;;;;80.07;39.95;;;;;;;;;;5053050;28;20025;-48
2021/10/27 08:08:09;;;;;;;90.13;43.25;;;;;;;;;;5052933;28;20025;-49
2021/10/27 08:10:35;;;;;;;81.68;44.80;;;;;;;;;;5053330;28;20526;-49
2021/10/27 08:13:01;;;;;;;90.60;45.30;;;;;;;;;;5052811;28;20025;-48
2021/10/27 08:15:27;;;;;;;96.70;47.90;;;;;;;;;;5053009;28;20029;-48
2021/10/27 08:17:54;;;;;;;92.18;44.72;;;;;;;;;;5052935;28;20059;-48
2021/10/27 08:20:26;;;;;;;94.10;47.17;;;;;;;;;;5052774;28;20033;-47
2021/10/27 08:22:58;;;;;;;97.57;50.50;;;;;;;;;;5052841;28;20021;-49
2021/10/27 08:25:32;;;;;;;88.60;46.88;;;;;;;;;;5052855;28;20051;-48
2021/10/27 08:28:05;;;;;;;89.88;47.15;;;;;;;;;;5052706;28;20032;-48
2021/10/27 08:31:01;;;;;;;86.35;48.22;;;;;;;;;;5052682;28;20021;-47
2021/10/27 08:35:56;;;;;;;97.90;54.03;;;;;;;;;;5052778;28;20036;-46
2021/10/27 08:38:22;;;;;;;86.00;50.17;;;;;;;;;;5056336;28;20123;-47
2021/10/27 08:40:49;;;;;;;91.53;51.75;;;;;;;;;;5056409;28;20465;-46
2021/10/27 08:43:16;;;;;;;89.50;51.40;;;;;;;;;;5056246;28;20025;-47
2021/10/27 08:45:42;;;;;;;100.88;54.55;;;;;;;;;;5056341;28;20031;-47
2021/10/27 08:48:12;;;;;;;96.50;52.45;;;;;;;;;;5056375;28;20083;-48
2021/10/27 08:50:39;;;;;;;95.45;50.80;;;;;;;;;;5056473;28;20029;-46
2021/10/27 08:53:06;;;;;;;100.30;53.05;;;;;;;;;;5056272;28;20035;-46
2021/10/27 08:55:36;;;;;;;115.38;52.28;;;;;;;;;;5056527;28;20158;-46
2021/10/27 08:58:03;;;;;;;100.68;54.42;;;;;;;;;;5056263;28;20021;-47
2021/10/27 09:04:06;;;;;;;117.05;67.43;;;;;;;;;;5036076;28;20078;-43
2021/10/27 09:06:15;;;;;;;142.82;79.80;;;;;;;;;;5027004;28;20029;-44
2021/10/27 09:09:09;;;;;;;136.60;74.43;;;;;;;;;;5035989;28;20029;-44
2021/10/27 09:55:24;;;;;;;113.75;61.47;;;;;;;;;;5034954;28;20026;-45
2021/10/27 10:06:14;;;;;;;125.63;68.50;;;;;;;;;;5035303;28;20389;-46
2021/10/27 10:08:44;;;;;;;124.93;72.15;;;;;;;;;;5035216;28;20556;-45
2021/10/27 10:11:12;;;;;;;150.07;83.93;;;;;;;;;;5034848;28;20034;-46
2021/10/27 10:13:39;;;;;;;142.48;76.80;;;;;;;;;;5034789;28;20538;-46
2021/10/27 10:16:06;;;;;;;153.55;89.38;;;;;;;;;;5034650;28;20462;-47
2021/10/27 10:18:35;;;;;;;138.27;80.10;;;;;;;;;;5034748;28;20104;-46
2021/10/27 10:21:01;;;;;;;149.95;82.57;;;;;;;;;;5034781;28;20508;-45
2021/10/27 10:23:28;;;;;;;136.77;79.90;;;;;;;;;;5034487;28;20128;-45
2021/10/27 10:25:55;;;;;;;160.38;89.28;;;;;;;;;;5034885;28;20032;-45
2021/10/27 10:28:23;;;;;;;161.73;90.78;;;;;;;;;;5034450;28;20021;-44
2021/10/27 10:30:58;;;;;;;172.00;100.28;;;;;;;;;;5034367;28;20026;-45
2021/10/27 10:33:37;;;;;;;177.25;103.25;;;;;;;;;;5034357;28;20095;-45
2021/10/27 10:36:15;;;;;;;146.95;89.13;;;;;;;;;;5034102;28;20040;-45
2021/10/27 11:01:25;;;;;;;;;;;;;;;;;;5034081;28;20033;-46
2021/10/27 11:24:42;;;;;;;166.68;102.90;;;;;;;;;;4992393;28;20049;-45
2021/10/27 11:27:02;;;;;;;160.88;99.22;;;;;;;;;;4979354;28;20081;-45
2021/10/27 11:37:54;;;;;;;167.40;98.63;;;;;;;;;;4991594;28;20632;-45
2021/10/27 11:40:25;;;;;;;218.23;125.88;;;;;;;;;;4991648;28;20411;-47
2021/10/27 11:43:16;;;;;;;187.17;111.37;;;;;;;;;;4991588;28;20073;-45
2021/10/27 11:48:24;;;;;;;145.77;85.47;;;;;;;;;;4991238;28;20274;-48
2021/10/27 11:50:50;;;;;;;153.68;91.10;;;;;;;;;;4991230;28;20027;-51
2021/10/27 11:53:24;;;;;;;156.77;88.57;;;;;;;;;;5020817;28;20067;-52
2021/10/27 11:55:51;;;;;;;168.13;89.13;;;;;;;;;;5032584;28;20026;-46
2021/10/27 11:58:17;;;;;;;169.98;101.50;;;;;;;;;;5033110;28;20025;-49
2021/10/27 12:00:47;;;;;;;148.77;82.63;;;;;;;;;;5032856;28;20021;-48
2021/10/27 12:03:23;;;;;;;129.30;80.53;;;;;;;;;;5033018;28;20033;-48
2021/10/27 12:06:01;;;;;;;141.55;83.35;;;;;;;;;;5033190;28;20105;-47
2021/10/27 12:13:44;;;;;;;125.43;72.30;;;;;;;;;;5037353;28;20037;-50
2021/10/27 12:19:02;;;;;;;126.43;72.43;;;;;;;;;;4995102;28;20089;-50
2021/10/27 12:21:29;;;;;;;105.63;62.45;;;;;;;;;;4995369;28;20069;-49
2021/10/27 12:23:55;;;;;;;189.25;114.03;;;;;;;;;;4995400;28;20050;-49
2021/10/27 12:26:24;;;;;;;133.07;81.85;;;;;;;;;;4995334;28;20026;-48
2021/10/27 12:29:02;;;;;;;120.88;74.28;;;;;;;;;;4995430;28;20467;-48
2021/10/27 12:31:30;;;;;;;145.55;86.63;;;;;;;;;;4995099;28;20030;-50
2021/10/27 12:33:57;;;;;;;110.20;64.82;;;;;;;;;;4995138;28;20383;-49
2021/10/27 12:36:33;;;;;;;135.52;79.63;;;;;;;;;;4994911;28;20134;-49
2021/10/27 12:39:34;;;;;;;138.57;81.20;;;;;;;;;;4995240;28;20034;-49
2021/10/27 12:42:02;;;;;;;98.82;58.10;;;;;;;;;;4994850;28;20423;-51
2021/10/27 12:44:30;;;;;;;116.60;68.70;;;;;;;;;;4994927;28;20070;-50
2021/10/27 12:47:16;;;;;;;101.10;56.90;;;;;;;;;;4994964;28;20514;-53
2021/10/27 12:49:44;;;;;;;83.85;47.92;;;;;;;;;;4994956;28;20097;-49
2021/10/27 12:52:25;;;;;;;110.80;64.43;;;;;;;;;;4978276;28;20039;-50
2021/10/27 12:55:15;;;;;;;108.93;64.60;;;;;;;;;;4994664;28;20031;-50
2021/10/27 12:57:45;;;;;;;106.50;65.43;;;;;;;;;;5036313;28;20156;-50
2021/10/27 13:13:54;;;;;;;104.88;63.03;;;;;;;;;;5044312;28;20032;-49
2021/10/27 13:31:53;;;;;;;120.45;71.07;;;;;;;;;;4994171;28;20042;-48
2021/10/27 13:34:20;;;;;;;113.32;69.85;;;;;;;;;;4993780;28;20499;-49
2021/10/27 13:36:46;;;;;;;107.60;60.10;;;;;;;;;;4993569;28;20566;-47
2021/10/27 13:39:12;;;;;;;96.85;53.70;;;;;;;;;;4993917;28;20038;-48
2021/10/27 13:41:43;;;;;;;103.25;59.28;;;;;;;;;;4993838;28;20030;-48
2021/10/27 13:44:16;;;;;;;120.38;71.90;;;;;;;;;;4993805;28;20074;-48
2021/10/27 14:06:15;;;;;;;50.67;29.45;;;;;;;;;;4934477;29;20098;-49
2021/10/27 15:22:51;;;;;;;165.43;92.55;;;;;;;;;;5041948;28;20462;-48
2021/10/27 15:44:16;;;;;;;141.30;80.68;;;;;;;;;;5035837;28;20025;-47
2021/10/27 15:52:20;;;;;;;457.45;257.92;;;;;;;;;;5041931;28;20092;-48
2021/10/27 15:54:47;;;;;;;182.20;109.05;;;;;;;;;;5041357;28;20021;-47
2021/10/27 15:57:13;;;;;;;223.23;130.77;;;;;;;;;;5053061;28;20029;-48
2021/10/27 15:59:40;;;;;;;282.15;163.10;;;;;;;;;;5047763;28;20531;-47
2021/10/27 16:02:06;;;;;;;291.75;160.55;;;;;;;;;;5033133;28;20029;-48
2021/10/27 16:04:33;;;;;;;509.27;263.63;;;;;;;;;;5033129;28;20033;-49
2021/10/27 16:07:00;;;;;;;232.80;125.53;;;;;;;;;;5032898;28;20481;-50
2021/10/27 16:09:37;;;;;;;193.85;113.85;;;;;;;;;;5033077;28;20029;-50
2021/10/27 16:12:04;;;;;;;170.32;104.93;;;;;;;;;;5033031;28;20144;-49
2021/10/27 16:14:31;;;;;;;196.75;121.10;;;;;;;;;;5046443;28;20029;-50
2021/10/27 16:16:57;;;;;;;165.50;102.70;;;;;;;;;;5015845;28;20141;-51
2021/10/27 16:19:24;;;;;;;142.88;81.25;;;;;;;;;;4998184;28;20030;-49
2021/10/27 16:21:50;;;;;;;203.32;118.38;;;;;;;;;;4997677;28;20018;-49
2021/10/27 16:24:17;;;;;;;312.58;168.23;;;;;;;;;;4998366;28;20033;-50
2021/10/27 16:26:44;;;;;;;410.65;215.05;;;;;;;;;;4998161;28;20595;-49
2021/10/27 16:29:10;;;;;;;466.40;256.65;;;;;;;;;;4998096;28;20377;-49
2021/10/27 16:31:37;;;;;;;430.83;237.95;;;;;;;;;;4996499;28;20469;-50
2021/10/27 16:34:03;;;;;;;399.40;214.32;;;;;;;;;;4997936;28;20025;-50
2021/10/27 16:36:30;;;;;;;376.63;216.73;;;;;;;;;;4997262;28;20564;-49
2021/10/27 16:38:56;;;;;;;203.07;115.68;;;;;;;;;;4998908;28;20029;-49
2021/10/27 16:41:22;;;;;;;115.30;69.03;;;;;;;;;;4998175;28;20022;-50
2021/10/27 16:43:48;;;;;;;113.00;67.88;;;;;;;;;;4998307;28;20026;-49
2021/10/27 16:46:15;;;;;;;107.00;65.32;;;;;;;;;;4997641;28;20049;-50
2021/10/27 16:48:41;;;;;;;96.00;60.78;;;;;;;;;;4997544;28;20112;-49
2021/10/27 16:51:07;;;;;;;99.40;59.42;;;;;;;;;;4997763;28;20755;-49
2021/10/27 16:53:36;;;;;;;90.18;53.53;;;;;;;;;;4997895;28;20030;-50
2021/10/27 16:56:04;;;;;;;85.03;54.80;;;;;;;;;;4998309;28;20514;-52
2021/10/27 16:58:31;;;;;;;79.97;52.50;;;;;;;;;;5000187;28;20060;-51
2021/10/27 17:00:57;;;;;;;96.85;58.22;;;;;;;;;;5001724;28;20522;-52
2021/10/27 17:03:24;;;;;;;93.97;60.63;;;;;;;;;;5001272;28;20018;-49
2021/10/27 17:05:51;;;;;;;127.90;75.43;;;;;;;;;;5001270;28;20556;-49
2021/10/27 17:08:17;;;;;;;488.30;297.45;;;;;;;;;;5001323;28;20034;-49
2021/10/27 17:10:49;;;;;;;498.60;296.00;;;;;;;;;;5000815;28;20044;-49
2021/10/27 17:13:16;;;;;;;262.38;144.27;;;;;;;;;;5001482;28;20014;-50
2021/10/27 17:15:43;;;;;;;221.95;122.07;;;;;;;;;;5001724;28;20025;-49
2021/10/27 17:18:09;;;;;;;163.75;93.70;;;;;;;;;;5000493;28;20033;-49
2021/10/27 17:20:36;;;;;;;174.48;97.82;;;;;;;;;;5000559;28;20484;-49
2021/10/27 17:23:05;;;;;;;159.45;95.22;;;;;;;;;;5001118;28;20119;-50
2021/10/27 17:25:35;;;;;;;251.77;139.15;;;;;;;;;;5000451;28;20037;-49
2021/10/27 17:28:01;;;;;;;204.02;116.43;;;;;;;;;;5000487;28;21015;-51
2021/10/27 17:30:28;;;;;;;162.65;94.97;;;;;;;;;;5000786;28;20052;-50
2021/10/27 17:32:58;;;;;;;123.07;73.32;;;;;;;;;;5000688;28;20022;-51
2021/10/27 17:35:25;;;;;;;119.32;70.93;;;;;;;;;;5000387;28;20021;-48
2021/10/27 17:37:51;;;;;;;119.97;68.20;;;;;;;;;;4999703;28;20180;-48
2021/10/27 17:40:37;;;;;;;116.30;70.50;;;;;;;;;;5000765;28;20038;-50
2021/10/27 17:43:04;;;;;;;166.35;95.78;;;;;;;;;;5000963;28;20017;-48
2021/10/27 17:45:37;;;;;;;186.20;121.88;;;;;;;;;;5000350;28;20033;-49
2021/10/27 17:58:35;;;;;;;92.57;57.42;;;;;;;;;;5020652;28;20032;-50
2021/10/27 18:01:03;;;;;;;102.45;63.35;;;;;;;;;;5021540;28;20073;-48
2021/10/27 18:03:30;;;;;;;130.52;77.18;;;;;;;;;;5020842;28;20667;-49
2021/10/27 18:05:57;;;;;;;95.50;57.47;;;;;;;;;;5006021;28;20955;-48
2021/10/27 18:08:24;;;;;;;112.80;63.88;;;;;;;;;;5020763;28;20160;-48
2021/10/27 18:10:54;;;;;;;95.30;50.92;;;;;;;;;;5021381;28;20060;-50
2021/10/27 18:13:24;;;;;;;83.25;48.17;;;;;;;;;;5020841;28;20035;-48
2021/10/27 18:15:53;;;;;;;82.97;48.03;;;;;;;;;;5021607;28;20201;-48
2021/10/27 18:18:26;;;;;;;78.25;43.38;;;;;;;;;;5020923;28;20075;-48
2021/10/27 18:20:52;;;;;;;65.53;40.28;;;;;;;;;;5020318;28;20120;-48
2021/10/27 18:23:27;;;;;;;73.25;44.85;;;;;;;;;;5007557;28;20033;-48
2021/10/27 18:28:36;;;;;;;78.50;48.65;;;;;;;;;;5006689;28;20022;-49
2021/10/27 18:36:40;;;;;;;140.25;79.18;;;;;;;;;;4998828;28;20556;-48
2021/10/27 18:39:22;;;;;;;144.98;81.15;;;;;;;;;;4998993;28;20672;-48
2021/10/27 18:41:55;;;;;;;;;;;;;;;;;;5000313;28;20680;-49
2021/10/27 18:44:22;;;;;;;123.70;73.20;;;;;;;;;;4998920;28;19917;-49
2021/10/27 18:46:49;;;;;;;127.30;75.47;;;;;;;;;;4999062;28;20033;-48
2021/10/27 18:49:17;;;;;;;119.47;72.22;;;;;;;;;;4999626;28;20394;-48
2021/10/27 18:52:01;;;;;;;116.40;71.32;;;;;;;;;;4999237;28;20033;-49
2021/10/27 18:54:35;;;;;;;234.75;142.57;;;;;;;;;;4999326;28;20059;-49
2021/10/27 19:02:22;;;;;;;137.00;89.90;;;;;;;;;;5000063;28;20079;-50
2021/10/27 19:10:41;;;;;;;140.52;85.22;;;;;;;;;;4999402;28;20846;-51
2021/10/27 19:15:43;;;;;;;155.65;85.72;;;;;;;;;;4999186;28;20039;-53
2021/10/27 19:18:09;;;;;;;146.70;78.65;;;;;;;;;;4998398;28;20049;-50
2021/10/27 19:20:35;;;;;;;119.78;70.60;;;;;;;;;;5027077;28;20748;-48
2021/10/27 19:23:02;;;;;;;105.00;65.72;;;;;;;;;;4998369;28;20041;-50
2021/10/27 19:28:03;;;;;;;112.22;66.50;;;;;;;;;;4999600;28;20541;-50
2021/10/27 19:30:38;;;;;;;107.40;64.45;;;;;;;;;;4998095;28;20409;-49
2021/10/27 20:53:52;;;;;;;319.38;202.50;;;;;;;;;;5033736;28;20090;-49
2021/10/27 20:56:21;;;;;;;357.08;219.27;;;;;;;;;;5034086;28;20470;-50
2021/10/27 21:01:30;;;;;;;347.75;220.85;;;;;;;;;;5033981;28;20139;-53
2021/10/27 21:14:55;;;;;;;361.02;218.13;;;;;;;;;;4960135;28;20029;-50
2021/10/27 21:17:22;;;;;;;369.58;218.15;;;;;;;;;;4957956;28;20785;-50
2021/10/27 21:19:48;;;;;;;351.85;209.52;;;;;;;;;;4958128;28;20031;-50
2021/10/27 21:22:14;;;;;;;352.85;209.35;;;;;;;;;;4954582;28;20026;-50